Time;durP1;ratioP1;P1;durP2;ratioP2;P2;SDS_P1;SDS_P2;PMS_P1;PMS_P2;Temp;Humidity;BMP_temperature;BMP_pressure;BME280_temperature;BME280_humidity;BME280_pressure;Samples;Min_cycle;Max_cycle;Signal;HPM_P1;HPM_P2
2022/12/20 00:01:21;;;;;;;0.77;0.55;;;14.30;67.00;;;;;;4988007;28;20607;-24
2022/12/20 00:03:50;;;;;;;0.60;0.60;;;14.30;67.00;;;;;;4984358;28;20131;-23
2022/12/20 00:06:16;;;;;;;1.58;0.77;;;14.30;66.90;;;;;;4988961;28;20108;-31
2022/12/20 00:08:42;;;;;;;0.50;0.50;;;14.30;67.00;;;;;;4990266;28;20046;-25
2022/12/20 00:11:08;;;;;;;0.60;0.50;;;14.30;66.90;;;;;;4988297;28;20081;-24
2022/12/20 00:13:34;;;;;;;0.55;0.52;;;14.30;66.90;;;;;;4987628;28;20042;-23
2022/12/20 00:16:20;;;;;;;0.60;0.60;;;14.30;67.00;;;;;;4988491;28;20073;-25
2022/12/20 00:18:46;;;;;;;0.43;0.40;;;14.30;66.90;;;;;;4989315;28;20077;-23
2022/12/20 00:21:13;;;;;;;0.65;0.65;;;14.30;67.00;;;;;;4988944;28;20072;-25
2022/12/20 00:23:38;;;;;;;0.77;0.77;;;14.30;67.00;;;;;;4988071;28;20092;-21
2022/12/20 00:26:06;;;;;;;0.60;0.60;;;14.30;66.90;;;;;;4988856;28;20042;-25
2022/12/20 00:28:32;;;;;;;1.10;0.70;;;14.30;67.00;;;;;;4989039;28;20054;-22
2022/12/20 00:30:58;;;;;;;0.45;0.45;;;14.20;66.90;;;;;;4988473;28;20136;-25
2022/12/20 00:33:23;;;;;;;0.60;0.60;;;14.30;66.90;;;;;;4988754;28;20054;-22
2022/12/20 00:35:49;;;;;;;0.65;0.50;;;14.30;66.70;;;;;;4989053;28;20069;-22
2022/12/20 00:38:14;;;;;;;0.60;0.60;;;14.30;66.70;;;;;;4988466;28;20096;-26
2022/12/20 00:40:40;;;;;;;0.82;0.57;;;14.30;66.80;;;;;;4988900;28;20034;-22
2022/12/20 00:43:06;;;;;;;0.50;0.50;;;14.30;66.80;;;;;;4987547;28;20057;-22
2022/12/20 00:45:32;;;;;;;0.90;0.80;;;14.30;66.60;;;;;;4988592;28;20108;-22
2022/12/20 00:47:57;;;;;;;0.88;0.70;;;14.30;66.70;;;;;;4989060;28;20049;-25
2022/12/20 00:50:23;;;;;;;0.47;0.47;;;14.30;66.90;;;;;;4988995;28;20042;-22
2022/12/20 00:52:48;;;;;;;0.60;0.60;;;14.30;66.70;;;;;;4989355;28;20534;-24
2022/12/20 00:55:14;;;;;;;0.50;0.50;;;14.30;66.80;;;;;;4987769;28;20046;-26
2022/12/20 00:57:40;;;;;;;0.68;0.60;;;14.30;66.80;;;;;;4988810;28;20038;-23
2022/12/20 01:00:06;;;;;;;0.85;0.60;;;14.20;66.90;;;;;;4987179;28;20520;-26
2022/12/20 01:02:31;;;;;;;0.50;0.50;;;14.30;66.80;;;;;;4988591;28;20118;-24
2022/12/20 01:04:57;;;;;;;0.70;0.60;;;14.30;66.80;;;;;;4987793;28;20129;-24
2022/12/20 01:07:23;;;;;;;0.50;0.50;;;14.20;66.80;;;;;;4987956;28;20403;-23
2022/12/20 01:09:49;;;;;;;1.45;0.50;;;14.20;66.80;;;;;;4988709;28;20042;-27
2022/12/20 01:12:15;;;;;;;0.65;0.45;;;14.30;66.90;;;;;;4987964;28;20050;-24
2022/12/20 01:14:40;;;;;;;0.73;0.63;;;14.20;66.80;;;;;;4988718;28;20083;-28
2022/12/20 01:17:06;;;;;;;0.70;0.55;;;14.30;66.90;;;;;;4987064;28;20470;-21
2022/12/20 01:19:32;;;;;;;0.55;0.55;;;14.30;66.90;;;;;;4988265;28;20038;-24
2022/12/20 01:21:57;;;;;;;0.82;0.63;;;14.20;66.90;;;;;;4988523;28;20222;-21
2022/12/20 01:24:23;;;;;;;0.50;0.50;;;14.20;66.80;;;;;;4986500;28;20526;-24
2022/12/20 01:26:48;;;;;;;0.40;0.40;;;14.20;66.90;;;;;;4988524;28;20177;-23
2022/12/20 01:29:14;;;;;;;1.60;0.70;;;14.20;66.90;;;;;;4985910;28;20540;-27
2022/12/20 01:31:40;;;;;;;0.80;0.80;;;14.20;67.20;;;;;;4983629;28;20043;-23
2022/12/20 01:34:05;;;;;;;0.77;0.77;;;14.20;67.10;;;;;;4984459;28;20454;-24
2022/12/20 01:36:33;;;;;;;0.60;0.60;;;14.20;67.20;;;;;;4988832;28;20038;-23
2022/12/20 01:38:59;;;;;;;0.57;0.57;;;14.20;67.10;;;;;;4988635;28;20050;-25
2022/12/20 01:41:25;;;;;;;0.73;0.73;;;14.20;67.10;;;;;;4987654;28;20049;-22
2022/12/20 01:44:01;;;;;;;0.70;0.70;;;14.20;67.10;;;;;;4991921;28;20038;-32
2022/12/20 01:46:28;;;;;;;0.68;0.55;;;14.20;67.10;;;;;;4990590;28;20522;-24
2022/12/20 01:48:59;;;;;;;0.75;0.60;;;14.20;67.10;;;;;;4992288;28;20541;-28
2022/12/20 01:51:24;;;;;;;0.65;0.65;;;14.20;67.00;;;;;;4991191;28;20046;-32
2022/12/20 01:53:53;;;;;;;0.70;0.60;;;14.20;67.30;;;;;;4991458;28;20038;-22
2022/12/20 01:56:19;;;;;;;0.63;0.50;;;14.20;67.10;;;;;;4991657;28;20042;-22
2022/12/20 01:58:44;;;;;;;0.68;0.63;;;14.30;67.20;;;;;;4991580;28;20412;-25
2022/12/20 02:01:10;;;;;;;0.70;0.70;;;14.30;67.00;;;;;;4987132;28;20622;-21
2022/12/20 02:03:36;;;;;;;1.42;0.70;;;14.20;67.00;;;;;;4991294;28;20051;-21
2022/12/20 02:06:22;;;;;;;0.60;0.60;;;14.30;67.10;;;;;;4990701;28;20085;-23
2022/12/20 02:08:49;;;;;;;0.50;0.50;;;14.20;67.20;;;;;;4990589;28;20046;-26
2022/12/20 02:11:21;;;;;;;0.55;0.50;;;14.20;67.20;;;;;;4991432;28;20042;-22
2022/12/20 02:14:05;;;;;;;0.73;0.65;;;14.20;67.30;;;;;;4990960;28;20051;-23
2022/12/20 02:16:34;;;;;;;0.60;0.40;;;14.20;67.30;;;;;;4991231;28;20145;-26
2022/12/20 02:19:15;;;;;;;0.40;0.40;;;14.30;67.20;;;;;;4986799;28;20531;-22
2022/12/20 02:21:51;;;;;;;0.68;0.60;;;14.20;67.20;;;;;;4990503;28;20100;-25
2022/12/20 02:24:49;;;;;;;0.50;0.50;;;14.20;67.40;;;;;;4989806;28;20133;-21
2022/12/20 02:27:42;;;;;;;0.73;0.73;;;14.20;67.50;;;;;;4973215;28;20622;-23
2022/12/20 02:30:18;;;;;;;0.50;0.50;;;14.20;67.30;;;;;;4990473;28;20054;-28
2022/12/20 02:32:52;;;;;;;0.60;0.60;;;14.20;67.30;;;;;;4987735;28;20053;-23
2022/12/20 02:35:22;;;;;;;0.65;0.65;;;14.20;67.50;;;;;;4989640;28;20041;-26
2022/12/20 02:37:52;;;;;;;0.60;0.60;;;14.20;67.40;;;;;;4990833;28;20474;-25
2022/12/20 02:40:20;;;;;;;0.50;0.50;;;14.20;67.60;;;;;;4991423;28;20053;-23
2022/12/20 02:42:47;;;;;;;0.80;0.80;;;14.20;67.60;;;;;;4986259;28;20089;-22
2022/12/20 02:45:15;;;;;;;1.90;1.17;;;14.20;67.50;;;;;;4988023;28;20053;-23
2022/12/20 02:47:44;;;;;;;0.50;0.50;;;14.20;67.50;;;;;;4990138;28;20050;-30
2022/12/20 02:50:09;;;;;;;0.70;0.70;;;14.10;67.60;;;;;;4989846;28;20507;-29
2022/12/20 02:52:35;;;;;;;0.60;0.60;;;14.20;67.80;;;;;;4987109;28;20039;-24
2022/12/20 02:55:00;;;;;;;0.75;0.73;;;14.20;67.80;;;;;;4985554;28;20502;-23
2022/12/20 02:57:37;;;;;;;0.50;0.50;;;14.20;67.60;;;;;;4986742;28;20058;-30
2022/12/20 03:00:04;;;;;;;0.50;0.50;;;14.20;67.50;;;;;;4984562;28;20512;-24
2022/12/20 03:03:21;;;;;;;0.60;0.60;;;14.20;67.50;;;;;;4989867;28;20053;-25
2022/12/20 03:05:16;;;;;;;0.85;0.60;;;14.20;67.70;;;;;;4983174;28;20039;-21
2022/12/20 03:07:42;;;;;;;1.15;0.70;;;14.20;67.80;;;;;;4986313;28;20031;-27
2022/12/20 03:10:08;;;;;;;0.70;0.60;;;14.20;67.60;;;;;;4988760;28;20038;-20
2022/12/20 03:12:33;;;;;;;0.65;0.60;;;14.20;67.40;;;;;;4991145;28;20051;-25
2022/12/20 03:14:59;;;;;;;0.57;0.50;;;14.20;67.70;;;;;;4990671;28;20065;-26
2022/12/20 03:17:25;;;;;;;0.52;0.52;;;14.10;67.70;;;;;;4990922;28;20034;-32
2022/12/20 03:19:50;;;;;;;0.60;0.57;;;14.10;67.60;;;;;;4990611;28;20496;-29
2022/12/20 03:22:16;;;;;;;0.93;0.70;;;14.20;68.00;;;;;;4989843;28;20038;-22
2022/12/20 03:24:41;;;;;;;0.60;0.60;;;14.20;68.00;;;;;;4990378;28;20046;-24
2022/12/20 03:27:07;;;;;;;0.85;0.60;;;14.10;67.80;;;;;;4991066;28;20042;-22
2022/12/20 03:29:33;;;;;;;0.90;0.73;;;14.20;67.50;;;;;;4988542;28;20100;-26
2022/12/20 03:31:59;;;;;;;1.05;0.70;;;14.20;67.70;;;;;;4990471;28;20027;-23
2022/12/20 03:34:24;;;;;;;0.60;0.60;;;14.20;67.50;;;;;;4989467;28;20411;-24
2022/12/20 03:36:50;;;;;;;0.52;0.52;;;14.20;67.90;;;;;;4990189;28;20097;-23
2022/12/20 03:39:15;;;;;;;0.50;0.50;;;14.10;68.00;;;;;;4988601;28;20476;-23
2022/12/20 03:41:41;;;;;;;0.77;0.60;;;14.10;67.90;;;;;;4990101;28;20034;-26
2022/12/20 03:44:07;;;;;;;0.98;0.88;;;14.10;68.80;;;;;;4989052;28;20108;-27
2022/12/20 03:46:32;;;;;;;0.80;0.80;;;14.10;68.00;;;;;;4989406;28;20046;-24
2022/12/20 03:48:58;;;;;;;0.70;0.70;;;14.10;68.30;;;;;;4990025;28;20042;-22
2022/12/20 03:51:23;;;;;;;0.77;0.73;;;14.10;68.90;;;;;;4988941;28;20046;-25
2022/12/20 03:53:49;;;;;;;1.00;0.90;;;14.10;68.20;;;;;;4989465;28;21373;-23
2022/12/20 03:56:15;;;;;;;0.65;0.65;;;14.10;68.10;;;;;;4989720;28;20451;-22
2022/12/20 03:58:40;;;;;;;0.70;0.70;;;14.10;68.30;;;;;;4989795;28;20082;-27
2022/12/20 04:01:20;;;;;;;0.90;0.90;;;14.20;68.50;;;;;;4988771;28;20129;-22
2022/12/20 04:03:45;;;;;;;0.68;0.68;;;14.20;68.60;;;;;;4986765;28;20042;-22
2022/12/20 04:06:11;;;;;;;0.65;0.65;;;14.10;68.20;;;;;;4988196;28;20100;-23
2022/12/20 04:08:36;;;;;;;0.70;0.70;;;14.10;68.50;;;;;;4987703;28;20050;-23
2022/12/20 04:11:18;;;;;;;0.90;0.50;;;14.10;68.60;;;;;;4990027;28;20040;-27
2022/12/20 04:13:51;;;;;;;0.93;0.47;;;14.10;68.40;;;;;;4989631;28;20231;-26
2022/12/20 04:16:18;;;;;;;0.67;0.50;;;14.10;70.00;;;;;;4988546;28;20049;-24
2022/12/20 04:18:44;;;;;;;0.90;0.65;;;14.10;69.10;;;;;;4989085;28;20054;-22
2022/12/20 04:21:09;;;;;;;0.55;0.55;;;14.10;68.30;;;;;;4989421;28;20045;-23
2022/12/20 04:23:36;;;;;;;0.80;0.70;;;14.10;69.50;;;;;;4988685;28;20042;-23
2022/12/20 04:26:02;;;;;;;0.60;0.60;;;14.10;68.80;;;;;;4989367;28;20026;-24
2022/12/20 04:28:28;;;;;;;0.47;0.47;;;14.10;69.20;;;;;;4987906;28;20043;-24
2022/12/20 04:30:53;;;;;;;0.82;0.68;;;14.10;68.30;;;;;;4988129;28;20039;-24
2022/12/20 04:33:19;;;;;;;1.10;0.70;;;14.10;69.20;;;;;;4988480;28;20077;-29
2022/12/20 04:35:44;;;;;;;0.80;0.52;;;14.20;69.80;;;;;;4988477;28;20035;-25
2022/12/20 04:38:10;;;;;;;0.80;0.80;;;14.10;68.50;;;;;;4988779;28;20500;-23
2022/12/20 04:40:36;;;;;;;0.50;0.50;;;14.20;69.00;;;;;;4988372;28;20134;-25
2022/12/20 04:43:01;;;;;;;0.80;0.70;;;14.10;69.50;;;;;;4989333;28;20083;-24
2022/12/20 04:45:27;;;;;;;1.65;0.80;;;14.20;69.30;;;;;;4988063;28;20125;-21
2022/12/20 04:47:52;;;;;;;0.93;0.63;;;14.20;70.20;;;;;;4989402;28;20050;-27
2022/12/20 04:50:18;;;;;;;0.68;0.68;;;14.20;69.20;;;;;;4987394;28;20054;-21
2022/12/20 04:55:28;;;;;;;0.50;0.40;;;14.20;69.70;;;;;;4987091;28;20053;-24
2022/12/20 04:57:54;;;;;;;0.98;0.90;;;14.20;68.60;;;;;;4984431;28;20042;-27
2022/12/20 05:00:19;;;;;;;0.95;0.75;;;14.20;70.80;;;;;;4986702;28;20042;-25
2022/12/20 05:02:45;;;;;;;0.70;0.70;;;14.20;69.40;;;;;;4987874;28;20189;-23
2022/12/20 05:05:11;;;;;;;0.60;0.60;;;14.20;69.80;;;;;;4988910;28;20478;-22
2022/12/20 05:07:37;;;;;;;0.80;0.80;;;14.20;68.60;;;;;;4988082;28;20517;-24
2022/12/20 05:10:03;;;;;;;0.68;0.68;;;14.10;70.10;;;;;;4989260;28;20507;-22
2022/12/20 05:12:28;;;;;;;0.80;0.70;;;14.20;70.30;;;;;;4988773;28;20046;-26
2022/12/20 05:14:54;;;;;;;0.52;0.52;;;14.20;69.60;;;;;;4988579;28;20066;-26
2022/12/20 05:17:19;;;;;;;0.88;0.70;;;14.20;69.40;;;;;;4987652;28;20034;-22
2022/12/20 05:19:45;;;;;;;0.75;0.75;;;14.20;69.80;;;;;;4987366;28;20077;-27
2022/12/20 05:27:39;;;;;;;0.77;0.70;;;14.30;69.90;;;;;;4986139;28;20092;-21
2022/12/20 05:30:05;;;;;;;0.63;0.60;;;14.20;70.10;;;;;;4987607;28;20042;-23
2022/12/20 05:32:31;;;;;;;0.90;0.90;;;14.20;69.60;;;;;;4986935;28;20035;-26
2022/12/20 05:34:56;;;;;;;0.80;0.60;;;14.30;70.20;;;;;;4987602;28;20496;-24
2022/12/20 05:37:22;;;;;;;2.15;0.70;;;14.30;68.90;;;;;;4987666;28;20058;-24
2022/12/20 05:39:47;;;;;;;0.57;0.57;;;14.30;69.80;;;;;;4987519;28;20046;-22
2022/12/20 05:42:13;;;;;;;0.95;0.80;;;14.30;69.60;;;;;;4986388;28;20173;-20
2022/12/20 05:44:38;;;;;;;0.40;0.40;;;14.40;69.90;;;;;;4984546;28;20549;-24
2022/12/20 05:47:04;;;;;;;0.50;0.50;;;14.40;69.20;;;;;;4987924;28;20050;-24
2022/12/20 05:49:30;;;;;;;0.50;0.50;;;14.40;69.20;;;;;;4986979;28;20050;-28
2022/12/20 05:51:55;;;;;;;1.08;0.60;;;14.50;68.30;;;;;;4987651;28;20050;-23
2022/12/20 05:54:21;;;;;;;0.95;0.40;;;14.40;69.80;;;;;;4988401;28;20054;-21
2022/12/20 05:56:46;;;;;;;0.43;0.43;;;14.50;68.80;;;;;;4987133;28;20050;-20
2022/12/20 05:59:12;;;;;;;0.60;0.50;;;14.50;68.60;;;;;;4987255;28;20031;-21
2022/12/20 06:01:38;;;;;;;0.60;0.60;;;14.50;69.00;;;;;;4987604;28;20411;-20
2022/12/20 06:04:03;;;;;;;0.90;0.70;;;14.40;68.40;;;;;;4989555;28;20049;-20
2022/12/20 06:06:29;;;;;;;0.63;0.60;;;14.40;69.20;;;;;;4985897;28;20050;-19
2022/12/20 06:08:55;;;;;;;0.65;0.60;;;14.40;69.40;;;;;;4987873;28;20042;-20
2022/12/20 06:11:20;;;;;;;0.80;0.52;;;14.60;68.00;;;;;;4985854;28;20056;-20
2022/12/20 06:13:46;;;;;;;0.60;0.60;;;14.50;68.70;;;;;;4983314;28;20050;-20
2022/12/20 06:16:12;;;;;;;0.93;0.60;;;14.50;67.90;;;;;;4987646;28;20046;-20
2022/12/20 06:18:37;;;;;;;1.10;0.52;;;14.60;68.40;;;;;;4985804;28;20061;-20
2022/12/20 06:21:03;;;;;;;0.60;0.60;;;14.50;68.00;;;;;;4988661;28;20054;-21
2022/12/20 06:23:28;;;;;;;0.85;0.60;;;14.60;68.80;;;;;;4986446;28;20571;-21
2022/12/20 06:25:54;;;;;;;0.73;0.60;;;14.60;67.80;;;;;;4986420;28;20061;-22
2022/12/20 06:28:22;;;;;;;0.60;0.60;;;14.60;67.60;;;;;;4987578;28;20046;-20
2022/12/20 06:30:55;;;;;;;0.60;0.60;;;14.50;67.60;;;;;;4990775;28;20097;-20
2022/12/20 06:33:20;;;;;;;0.65;0.65;;;14.50;68.30;;;;;;4989684;28;20066;-20
2022/12/20 06:35:46;;;;;;;0.90;0.65;;;14.60;68.60;;;;;;4990337;28;20046;-20
2022/12/20 06:38:11;;;;;;;0.60;0.60;;;14.60;68.20;;;;;;4986692;28;20500;-19
2022/12/20 06:40:37;;;;;;;0.40;0.40;;;14.60;68.20;;;;;;4990125;28;20053;-20
2022/12/20 06:43:02;;;;;;;0.57;0.57;;;14.60;68.00;;;;;;4989998;28;20057;-19
2022/12/20 06:45:28;;;;;;;0.80;0.80;;;14.60;67.60;;;;;;4989911;28;20043;-24
2022/12/20 06:47:54;;;;;;;1.25;0.60;;;14.50;68.60;;;;;;4990924;28;20051;-26
2022/12/20 06:50:19;;;;;;;0.50;0.50;;;14.60;69.20;;;;;;4989670;28;20128;-20
2022/12/20 06:52:45;;;;;;;0.60;0.60;;;14.60;67.80;;;;;;4991102;28;20046;-23
2022/12/20 06:55:10;;;;;;;0.60;0.60;;;14.60;67.40;;;;;;4989433;28;20105;-19
2022/12/20 06:57:36;;;;;;;0.80;0.80;;;14.50;68.00;;;;;;4990041;28;20065;-19
2022/12/20 07:00:02;;;;;;;0.70;0.70;;;14.50;67.50;;;;;;4990330;28;20038;-19
2022/12/20 07:02:28;;;;;;;0.40;0.40;;;14.60;67.90;;;;;;4990134;28;20393;-20
2022/12/20 07:04:54;;;;;;;0.50;0.50;;;14.60;67.70;;;;;;4990446;28;20117;-20
2022/12/20 07:07:19;;;;;;;0.55;0.55;;;14.60;67.30;;;;;;4990221;28;20114;-21
2022/12/20 07:09:45;;;;;;;0.50;0.50;;;14.60;67.30;;;;;;4989362;28;20061;-19
2022/12/20 07:12:11;;;;;;;0.50;0.50;;;14.60;67.80;;;;;;4989850;28;20046;-19
2022/12/20 07:14:36;;;;;;;0.60;0.60;;;14.60;67.10;;;;;;4990744;28;20050;-19
2022/12/20 07:17:03;;;;;;;1.05;0.50;;;14.50;67.10;;;;;;4988656;28;20451;-20
2022/12/20 07:19:28;;;;;;;1.50;0.60;;;14.50;67.20;;;;;;4990403;28;20045;-19
2022/12/20 07:21:55;;;;;;;0.60;0.60;;;14.50;67.20;;;;;;4990571;28;20042;-19
2022/12/20 07:24:20;;;;;;;0.70;0.70;;;14.50;67.00;;;;;;4988994;28;20420;-20
2022/12/20 07:26:46;;;;;;;0.68;0.68;;;14.50;67.00;;;;;;4989166;28;20038;-25
2022/12/20 07:29:12;;;;;;;0.55;0.55;;;14.50;67.10;;;;;;4989974;28;20125;-19
2022/12/20 07:31:37;;;;;;;0.60;0.50;;;14.50;67.30;;;;;;4987973;28;20507;-19
2022/12/20 07:34:03;;;;;;;1.33;0.50;;;14.50;67.10;;;;;;4990469;28;20041;-20
2022/12/20 07:36:29;;;;;;;0.40;0.40;;;14.60;67.00;;;;;;4988736;28;20108;-19
2022/12/20 07:38:54;;;;;;;0.73;0.73;;;14.60;67.10;;;;;;4990298;28;20058;-27
2022/12/20 07:41:20;;;;;;;0.85;0.40;;;14.50;67.10;;;;;;4989350;28;20050;-21
2022/12/20 07:43:46;;;;;;;0.30;0.30;;;14.50;67.00;;;;;;4990322;28;20176;-26
2022/12/20 07:46:14;;;;;;;0.40;0.40;;;14.60;67.10;;;;;;4990012;28;20042;-19
2022/12/20 07:48:40;;;;;;;0.50;0.50;;;14.50;66.80;;;;;;4987693;28;20050;-20
2022/12/20 07:51:11;;;;;;;0.50;0.50;;;14.50;67.00;;;;;;4990671;28;20109;-19
2022/12/20 07:53:39;;;;;;;0.43;0.40;;;14.50;67.00;;;;;;4988555;28;20125;-20
2022/12/20 07:56:04;;;;;;;0.40;0.40;;;14.50;67.00;;;;;;4989560;28;20042;-19
2022/12/20 07:58:30;;;;;;;0.57;0.57;;;14.50;67.30;;;;;;4988480;28;20112;-26
2022/12/20 08:00:56;;;;;;;0.30;0.30;;;14.50;67.30;;;;;;4988917;28;20042;-19
2022/12/20 08:03:24;;;;;;;0.35;0.35;;;14.50;67.10;;;;;;4987767;28;20054;-21
2022/12/20 08:05:52;;;;;;;0.95;0.60;;;14.50;67.80;;;;;;4988064;28;20050;-20
2022/12/20 08:08:17;;;;;;;0.65;0.65;;;14.50;67.10;;;;;;4988666;28;20451;-19
2022/12/20 08:10:43;;;;;;;0.65;0.52;;;14.60;67.30;;;;;;4987994;28;20125;-20
2022/12/20 08:13:08;;;;;;;0.50;0.50;;;14.60;66.70;;;;;;4989199;28;20412;-20
2022/12/20 08:15:34;;;;;;;0.52;0.47;;;14.60;66.70;;;;;;4985438;28;20046;-20
2022/12/20 08:18:00;;;;;;;0.55;0.55;;;14.60;67.00;;;;;;4988751;28;20049;-20
2022/12/20 08:20:26;;;;;;;0.50;0.50;;;14.60;67.00;;;;;;4987310;28;20042;-23
2022/12/20 08:22:51;;;;;;;0.50;0.40;;;14.50;67.10;;;;;;4989055;28;20042;-20
2022/12/20 08:25:17;;;;;;;0.30;0.30;;;14.50;67.30;;;;;;4988549;28;20042;-27
2022/12/20 08:27:43;;;;;;;0.30;0.30;;;14.60;67.10;;;;;;4987938;28;20504;-21
2022/12/20 08:30:09;;;;;;;0.50;0.50;;;14.60;66.80;;;;;;4988438;28;20551;-19
2022/12/20 08:32:35;;;;;;;0.45;0.45;;;14.60;67.10;;;;;;4987703;28;20046;-20
2022/12/20 08:35:01;;;;;;;0.40;0.40;;;14.60;67.10;;;;;;4988513;28;20546;-20
2022/12/20 08:37:26;;;;;;;0.57;0.35;;;14.60;67.00;;;;;;4987607;28;20042;-17
2022/12/20 08:39:52;;;;;;;0.60;0.45;;;14.60;67.10;;;;;;4988941;28;20049;-20
2022/12/20 08:42:17;;;;;;;0.32;0.30;;;14.60;67.10;;;;;;4987115;28;20042;-24
2022/12/20 08:44:43;;;;;;;0.40;0.40;;;14.60;66.70;;;;;;4988850;28;20049;-19
2022/12/20 08:47:09;;;;;;;0.70;0.50;;;14.70;66.60;;;;;;4988708;28;20046;-20
2022/12/20 08:49:35;;;;;;;0.43;0.43;;;14.70;66.60;;;;;;4987766;28;20075;-20
2022/12/20 08:52:00;;;;;;;0.50;0.50;;;14.60;66.70;;;;;;4987678;28;20125;-25
2022/12/20 08:54:27;;;;;;;0.40;0.40;;;14.60;66.80;;;;;;4988481;28;20058;-16
2022/12/20 08:56:53;;;;;;;0.57;0.50;;;14.60;67.20;;;;;;4987730;28;20049;-20
2022/12/20 08:59:18;;;;;;;0.47;0.40;;;14.60;67.10;;;;;;4987340;28;20500;-20
2022/12/20 09:01:44;;;;;;;0.50;0.50;;;14.60;67.20;;;;;;4987314;28;20574;-19
2022/12/20 09:04:10;;;;;;;0.50;0.50;;;14.50;66.90;;;;;;4988157;28;20050;-20
2022/12/20 09:06:36;;;;;;;0.77;0.38;;;14.60;67.00;;;;;;4987143;28;20066;-19
2022/12/20 09:09:02;;;;;;;0.40;0.40;;;14.60;67.10;;;;;;4987815;28;20094;-19
2022/12/20 09:11:27;;;;;;;0.47;0.47;;;14.60;66.80;;;;;;4988698;28;20129;-20
2022/12/20 09:13:54;;;;;;;0.50;0.50;;;14.60;66.90;;;;;;4986337;28;20168;-20
2022/12/20 09:16:22;;;;;;;0.60;0.40;;;14.60;66.90;;;;;;4987996;28;20133;-20
2022/12/20 09:18:52;;;;;;;0.50;0.40;;;14.60;67.10;;;;;;4987847;28;20132;-21
2022/12/20 09:21:17;;;;;;;0.30;0.30;;;14.60;66.80;;;;;;4988103;28;20500;-20
2022/12/20 09:23:43;;;;;;;0.50;0.40;;;14.60;66.50;;;;;;4986875;28;20038;-19
2022/12/20 09:26:13;;;;;;;0.43;0.43;;;14.60;67.10;;;;;;4988757;28;20239;-20
2022/12/20 09:28:40;;;;;;;0.40;0.40;;;14.60;67.30;;;;;;4987348;28;20476;-20
2022/12/20 09:31:06;;;;;;;0.40;0.40;;;14.60;67.10;;;;;;4987482;28;20042;-20
2022/12/20 09:33:32;;;;;;;0.40;0.40;;;14.70;66.70;;;;;;4986664;28;20065;-19
2022/12/20 09:35:58;;;;;;;0.80;0.30;;;14.60;67.00;;;;;;4987301;28;20046;-20
2022/12/20 09:38:24;;;;;;;0.60;0.50;;;14.60;66.90;;;;;;4987789;28;20101;-20
2022/12/20 09:40:51;;;;;;;0.40;0.40;;;14.70;67.50;;;;;;4987784;28;22829;-24
2022/12/20 09:43:17;;;;;;;0.45;0.45;;;14.70;66.90;;;;;;4979385;28;20078;-20
2022/12/20 09:45:44;;;;;;;0.60;0.50;;;14.70;67.10;;;;;;5012679;28;20069;-26
2022/12/20 09:48:16;;;;;;;0.60;0.55;;;14.60;67.30;;;;;;4987980;28;20035;-20
2022/12/20 09:51:04;;;;;;;0.63;0.63;;;14.70;67.90;;;;;;4986844;28;21235;-20
2022/12/20 09:53:38;;;;;;;0.60;0.60;;;14.60;68.30;;;;;;4987421;28;20049;-20
2022/12/20 09:56:27;;;;;;;0.55;0.50;;;14.60;68.70;;;;;;4986329;28;20581;-20
2022/12/20 09:59:00;;;;;;;0.60;0.55;;;14.70;67.80;;;;;;4986304;28;20046;-19
2022/12/20 10:01:27;;;;;;;0.50;0.50;;;14.70;68.10;;;;;;4987118;28;20101;-21
2022/12/20 10:03:53;;;;;;;0.65;0.60;;;14.60;68.70;;;;;;4986257;28;20643;-19
2022/12/20 10:06:19;;;;;;;0.85;0.70;;;14.60;68.40;;;;;;4991016;28;20050;-20
2022/12/20 10:08:57;;;;;;;0.52;0.40;;;14.60;68.60;;;;;;4991372;28;20540;-20
2022/12/20 10:11:32;;;;;;;1.25;0.70;;;14.60;68.50;;;;;;4990743;28;20060;-26
2022/12/20 10:14:24;;;;;;;1.00;0.60;;;14.60;69.20;;;;;;4991163;28;20522;-19
2022/12/20 10:16:57;;;;;;;0.63;0.63;;;14.70;69.20;;;;;;4990807;28;20030;-20
2022/12/20 10:19:35;;;;;;;0.60;0.60;;;14.60;69.20;;;;;;4989603;28;20044;-29
2022/12/20 10:22:17;;;;;;;0.77;0.68;;;14.60;68.60;;;;;;4972316;28;20054;-19
2022/12/20 10:25:06;;;;;;;0.47;0.47;;;14.50;69.50;;;;;;4989275;28;20391;-20
2022/12/20 10:27:36;;;;;;;0.60;0.60;;;14.50;69.40;;;;;;4971458;28;20578;-20
2022/12/20 10:30:09;;;;;;;0.68;0.68;;;14.50;69.30;;;;;;4988632;28;20046;-20
2022/12/20 10:32:35;;;;;;;0.63;0.50;;;14.40;70.70;;;;;;4988691;28;20054;-20
2022/12/20 10:35:26;;;;;;;0.68;0.68;;;14.40;69.80;;;;;;4991231;28;20065;-19
2022/12/20 10:38:06;;;;;;;0.50;0.50;;;14.50;69.30;;;;;;4988849;28;20046;-19
2022/12/20 10:40:35;;;;;;;0.68;0.68;;;14.40;70.00;;;;;;4990359;28;20035;-19
2022/12/20 10:43:01;;;;;;;0.68;0.65;;;14.40;69.20;;;;;;4990055;28;20049;-20
2022/12/20 10:45:37;;;;;;;0.68;0.50;;;14.30;70.30;;;;;;4990191;28;20043;-19
2022/12/20 10:48:21;;;;;;;0.40;0.40;;;14.40;69.60;;;;;;4995085;28;20500;-19
2022/12/20 10:51:03;;;;;;;0.85;0.50;;;14.30;70.90;;;;;;5015453;28;20450;-21
2022/12/20 10:53:30;;;;;;;0.60;0.40;;;14.20;70.60;;;;;;4987886;28;20411;-22
2022/12/20 10:56:26;;;;;;;0.52;0.45;;;14.20;70.90;;;;;;4989653;28;20443;-28
2022/12/20 10:58:57;;;;;;;0.60;0.60;;;14.20;71.20;;;;;;4988517;28;20459;-19
2022/12/20 11:01:28;;;;;;;0.70;0.57;;;14.40;70.30;;;;;;4985489;28;20077;-19
2022/12/20 11:04:04;;;;;;;0.70;0.65;;;14.30;70.20;;;;;;4995705;28;20464;-20
2022/12/20 11:06:36;;;;;;;0.50;0.50;;;14.20;70.10;;;;;;4990954;28;20046;-26
2022/12/20 11:09:16;;;;;;;0.60;0.60;;;14.30;70.30;;;;;;4989675;28;20054;-29
2022/12/20 11:11:58;;;;;;;0.93;0.60;;;14.30;70.20;;;;;;4989226;28;20054;-19
2022/12/20 11:14:24;;;;;;;1.13;0.52;;;14.20;69.50;;;;;;4987050;28;20506;-20
2022/12/20 11:16:53;;;;;;;0.68;0.60;;;14.20;71.00;;;;;;4989735;28;20126;-19
2022/12/20 11:19:40;;;;;;;0.90;0.60;;;14.20;69.90;;;;;;4989602;28;20093;-20
2022/12/20 11:22:33;;;;;;;0.57;0.47;;;14.20;71.30;;;;;;4990805;28;20061;-25
2022/12/20 11:25:18;;;;;;;1.10;0.93;;;14.30;71.00;;;;;;4984742;28;20431;-20
2022/12/20 11:27:47;;;;;;;0.77;0.40;;;14.30;70.70;;;;;;4988932;28;20459;-20
2022/12/20 11:30:26;;;;;;;0.73;0.52;;;14.20;70.50;;;;;;4989699;28;20057;-20
2022/12/20 11:33:10;;;;;;;0.47;0.43;;;14.20;70.20;;;;;;4985919;28;20054;-19
2022/12/20 11:36:20;;;;;;;0.50;0.50;;;14.20;71.40;;;;;;4989577;28;20526;-20
2022/12/20 11:38:56;;;;;;;0.40;0.40;;;14.20;69.60;;;;;;4963642;28;20043;-20
2022/12/20 11:41:41;;;;;;;0.40;0.40;;;14.20;69.90;;;;;;4960191;28;20035;-21
2022/12/20 11:44:31;;;;;;;0.77;0.60;;;14.20;70.70;;;;;;4964020;28;20051;-25
2022/12/20 11:47:18;;;;;;;1.15;0.50;;;14.20;70.50;;;;;;4945266;28;20122;-20
2022/12/20 11:49:55;;;;;;;0.63;0.47;;;14.20;69.90;;;;;;4959194;28;20054;-21
2022/12/20 11:52:28;;;;;;;0.50;0.47;;;14.20;70.70;;;;;;4945513;28;20053;-25
2022/12/20 11:55:20;;;;;;;0.50;0.33;;;14.20;71.10;;;;;;4964105;28;20045;-21
2022/12/20 11:57:56;;;;;;;0.75;0.70;;;14.20;70.40;;;;;;4962219;28;20051;-24
2022/12/20 12:00:22;;;;;;;0.77;0.57;;;14.20;71.20;;;;;;4963246;28;20054;-21
2022/12/20 12:02:54;;;;;;;0.50;0.50;;;14.20;71.60;;;;;;4963962;28;20472;-21
2022/12/20 12:05:25;;;;;;;0.60;0.60;;;14.20;71.00;;;;;;4947149;28;20522;-30
2022/12/20 12:07:55;;;;;;;0.80;0.80;;;14.20;71.60;;;;;;4947252;28;20043;-21
2022/12/20 12:10:23;;;;;;;0.98;0.70;;;14.20;71.30;;;;;;5005677;28;20054;-20
2022/12/20 12:13:12;;;;;;;0.80;0.80;;;14.30;70.80;;;;;;4987888;28;20057;-20
2022/12/20 12:15:49;;;;;;;0.40;0.40;;;14.20;70.90;;;;;;5004217;28;20077;-21
2022/12/20 12:18:17;;;;;;;0.50;0.50;;;14.30;71.40;;;;;;4985893;28;20254;-21
2022/12/20 12:21:03;;;;;;;0.40;0.40;;;14.30;70.30;;;;;;4988749;28;20042;-20
2022/12/20 12:23:44;;;;;;;0.52;0.52;;;14.30;70.70;;;;;;4988121;28;20045;-21
2022/12/20 12:26:26;;;;;;;0.50;0.50;;;14.30;71.10;;;;;;4987209;28;20049;-21
2022/12/20 12:28:59;;;;;;;0.63;0.55;;;14.30;70.60;;;;;;4986757;28;20038;-21
2022/12/20 12:31:36;;;;;;;0.50;0.50;;;14.40;70.70;;;;;;4988132;28;20085;-21
2022/12/20 12:34:07;;;;;;;0.40;0.40;;;14.30;71.00;;;;;;4986714;28;20487;-21
2022/12/20 12:37:14;;;;;;;0.52;0.47;;;14.40;70.80;;;;;;4986062;28;20042;-21
2022/12/20 12:39:55;;;;;;;0.68;0.50;;;14.40;71.10;;;;;;4987101;28;20521;-23
2022/12/20 12:42:34;;;;;;;0.60;0.60;;;14.40;70.00;;;;;;4985996;28;20105;-21
2022/12/20 12:45:08;;;;;;;1.05;0.50;;;14.50;70.30;;;;;;4987297;28;20052;-27
2022/12/20 12:47:48;;;;;;;0.60;0.52;;;14.50;69.60;;;;;;4985715;28;20093;-23
2022/12/20 12:50:24;;;;;;;0.40;0.40;;;14.60;68.70;;;;;;4968561;28;20045;-20
2022/12/20 12:52:53;;;;;;;0.60;0.55;;;14.60;69.50;;;;;;4987310;28;20089;-21
2022/12/20 12:55:39;;;;;;;0.63;0.50;;;14.70;69.30;;;;;;4984184;28;20334;-21
2022/12/20 12:58:23;;;;;;;0.60;0.60;;;14.60;69.70;;;;;;4987996;28;20054;-22
2022/12/20 13:00:51;;;;;;;0.47;0.47;;;14.70;69.00;;;;;;4986221;28;20133;-21
2022/12/20 13:03:36;;;;;;;0.60;0.50;;;14.60;69.90;;;;;;4985772;28;20046;-21
2022/12/20 13:06:20;;;;;;;;;;;14.60;69.30;;;;;;4986363;28;20050;-21
2022/12/20 13:09:07;;;;;;;0.40;0.40;;;14.60;69.10;;;;;;4989030;28;19953;-21